Terminal Aerodrome Forecast
Issued by NWS

Home | Current Version | Previous Version | Text Only | Print | Product List | Glossary On
Versions: 1 2 3 4 5 6 7 8 9 10 11 12 13 14
000
FTUS42 TJSJ 211120
TAFJBQ
TAF
TJBQ 211120Z 2112/2212 10007KT P6SM VCSH SCT030 BKN080
     FM211300 08015KT P6SM FEW030 SCT090
     FM211800 07018G24KT P6SM VCTS SCT025CB BKN050
     FM212230 09011KT P6SM FEW030 SCT090=

USA.gov is the U.S. government's official web portal to all federal, state and local government web resources and services.